Ana Sayfa
METAR-TAF:

METAR-TAF

Havaalanları :

Oradea, Romanya

Enlem: 47-03N, Boylam: 021-56E, yükseklik: 135 m

Güncel hava durumu gözlemi

Rapor saat 12:00 UTC de 38 dakika önce yapıldı.
Rüzgar güneydan 9 kt
Sıcaklık 8°C
Nem 81%
Basınç 1018 hPa
Görüş mesafesi 10 km veya daha fazla
800 ft yükseklikte az bulutlu

METAR: LROD 081200Z 18009KT 9999 FEW008 08/05 Q1018

Saat: 14:38 (12:38 UTC)

Tahmin

Rapor saat 11:00 UTC de 1 saat ve 38 dakika önce yapıldı.
Ayın 08'si saat 12 UTC'den ayın 08'si saat 21 UTC'ye kadar geçerli Tahmin
Rüzgar güneydan 10 kt
Görüş mesafesi: 7000 m
1000 ft yükseklikte parçalı bulutlu
Dönüşüyor
ayın 08'si saat 14 UTC'den ayın 08'si saat 16 UTC'ye kadar
Görüş mesafesi: 3000 m
500 ft yükseklikte parçalı çok bulutlu
Pus
Dönüşüyor
ayın 08'si saat 16 UTC'den ayın 08'si saat 18 UTC'ye kadar
Görüş mesafesi: 0600 m
200 ft yükseklikte çok bulutlu
sis

TAF: LROD 081100Z 0812/0821 19010KT 7000 SCT010 BECMG 0814/0816 3000 BR BKN005 BECMG 0816/0818 0600 FG OVC002

4.000'den fazla havaalanı için hava durumu gözlemleri ve tahminleri (METAR ve TAF raporları).

Kullanılabilir istasyonlar harita üzerinde sarı ve kırmızı noktalarla gösterilir.

İstasyonun adını görmek için fareyi noktanın üzerinde gezdirin.

Sonrasında hava gözlem ve tahminlerini görmek için tıklayın.

Haritayı değiştirmek için: yaklaştırmak için siyah artı işaretli yeşil düğmeye ve uzaklaştırmak için de eksi işaretli düğmeye hızla tıklayın; bitişik haritalar için yeşil okları kullanın.


METAR-TAF: